sensor_id;sensor_type;location;lat;lon;timestamp;temperature;humidity
71177;DHT22;58877;51.992;4.504;2023-04-28T00:01:21;11.25;62.15
71177;DHT22;58877;51.992;4.504;2023-04-28T00:03:46;11.26;61.80
71177;DHT22;58877;51.992;4.504;2023-04-28T00:06:15;11.29;61.62
71177;DHT22;58877;51.992;4.504;2023-04-28T00:08:40;11.29;61.74
71177;DHT22;58877;51.992;4.504;2023-04-28T00:11:10;11.22;61.81
71177;DHT22;58877;51.992;4.504;2023-04-28T00:13:36;11.18;61.32
71177;DHT22;58877;51.992;4.504;2023-04-28T00:16:02;11.18;61.21
71177;DHT22;58877;51.992;4.504;2023-04-28T00:18:30;11.24;61.26
71177;DHT22;58877;51.992;4.504;2023-04-28T00:20:57;11.22;61.15
71177;DHT22;58877;51.992;4.504;2023-04-28T00:23:38;11.21;60.70
71177;DHT22;58877;51.992;4.504;2023-04-28T00:26:04;11.16;61.61
71177;DHT22;58877;51.992;4.504;2023-04-28T00:28:30;11.14;61.20
71177;DHT22;58877;51.992;4.504;2023-04-28T00:30:55;11.05;60.59
71177;DHT22;58877;51.992;4.504;2023-04-28T00:33:21;11.04;61.03
71177;DHT22;58877;51.992;4.504;2023-04-28T00:35:46;11.07;61.23
71177;DHT22;58877;51.992;4.504;2023-04-28T00:38:12;11.08;60.92
71177;DHT22;58877;51.992;4.504;2023-04-28T00:40:38;11.12;61.04
71177;DHT22;58877;51.992;4.504;2023-04-28T00:43:04;11.19;60.54
71177;DHT22;58877;51.992;4.504;2023-04-28T00:45:30;11.22;59.99
71177;DHT22;58877;51.992;4.504;2023-04-28T00:47:57;11.24;60.28
71177;DHT22;58877;51.992;4.504;2023-04-28T00:50:24;11.22;60.45
71177;DHT22;58877;51.992;4.504;2023-04-28T00:52:50;11.25;60.15
71177;DHT22;58877;51.992;4.504;2023-04-28T00:55:16;11.22;59.79
71177;DHT22;58877;51.992;4.504;2023-04-28T00:57:42;11.24;59.90
71177;DHT22;58877;51.992;4.504;2023-04-28T01:00:08;11.21;59.92
71177;DHT22;58877;51.992;4.504;2023-04-28T01:02:35;11.26;59.71
71177;DHT22;58877;51.992;4.504;2023-04-28T01:05:02;11.25;59.73
71177;DHT22;58877;51.992;4.504;2023-04-28T01:07:28;11.29;60.17
71177;DHT22;58877;51.992;4.504;2023-04-28T01:09:55;11.28;60.10
71177;DHT22;58877;51.992;4.504;2023-04-28T01:12:21;11.29;59.81
71177;DHT22;58877;51.992;4.504;2023-04-28T01:14:50;11.19;59.89
71177;DHT22;58877;51.992;4.504;2023-04-28T01:17:17;11.16;60.16
71177;DHT22;58877;51.992;4.504;2023-04-28T01:19:43;11.19;60.24
71177;DHT22;58877;51.992;4.504;2023-04-28T01:22:08;11.11;60.29
71177;DHT22;58877;51.992;4.504;2023-04-28T01:24:38;11.14;60.05
71177;DHT22;58877;51.992;4.504;2023-04-28T01:27:03;11.15;60.23
71177;DHT22;58877;51.992;4.504;2023-04-28T01:29:30;11.18;60.15
71177;DHT22;58877;51.992;4.504;2023-04-28T01:31:56;11.16;59.99
71177;DHT22;58877;51.992;4.504;2023-04-28T01:34:21;11.08;59.76
71177;DHT22;58877;51.992;4.504;2023-04-28T01:36:47;11.10;60.07
71177;DHT22;58877;51.992;4.504;2023-04-28T01:39:12;11.12;59.83
71177;DHT22;58877;51.992;4.504;2023-04-28T01:41:39;11.07;60.07
71177;DHT22;58877;51.992;4.504;2023-04-28T01:44:05;11.04;59.69
71177;DHT22;58877;51.992;4.504;2023-04-28T01:46:32;10.92;59.97
71177;DHT22;58877;51.992;4.504;2023-04-28T01:48:58;10.92;60.04
71177;DHT22;58877;51.992;4.504;2023-04-28T01:51:23;10.94;59.99
71177;DHT22;58877;51.992;4.504;2023-04-28T01:53:49;10.91;60.19
71177;DHT22;58877;51.992;4.504;2023-04-28T01:56:14;10.88;60.14
71177;DHT22;58877;51.992;4.504;2023-04-28T01:58:40;10.82;60.41
71177;DHT22;58877;51.992;4.504;2023-04-28T02:01:06;10.92;59.66
71177;DHT22;58877;51.992;4.504;2023-04-28T02:03:31;10.90;59.94
71177;DHT22;58877;51.992;4.504;2023-04-28T02:05:57;10.90;59.94
71177;DHT22;58877;51.992;4.504;2023-04-28T02:08:22;10.87;60.07
71177;DHT22;58877;51.992;4.504;2023-04-28T02:10:48;10.87;60.01
71177;DHT22;58877;51.992;4.504;2023-04-28T02:13:14;10.85;60.25
71177;DHT22;58877;51.992;4.504;2023-04-28T02:15:41;10.84;59.96
71177;DHT22;58877;51.992;4.504;2023-04-28T02:18:08;10.77;60.65
71177;DHT22;58877;51.992;4.504;2023-04-28T02:20:34;10.84;60.69
71177;DHT22;58877;51.992;4.504;2023-04-28T02:22:59;10.84;60.35
71177;DHT22;58877;51.992;4.504;2023-04-28T02:25:25;10.85;60.45
71177;DHT22;58877;51.992;4.504;2023-04-28T02:27:50;10.84;60.09
71177;DHT22;58877;51.992;4.504;2023-04-28T02:30:16;10.87;60.06
71177;DHT22;58877;51.992;4.504;2023-04-28T02:32:41;10.88;60.30
71177;DHT22;58877;51.992;4.504;2023-04-28T02:35:07;10.87;60.28
71177;DHT22;58877;51.992;4.504;2023-04-28T02:37:33;10.88;60.23
71177;DHT22;58877;51.992;4.504;2023-04-28T02:40:00;10.88;60.34
71177;DHT22;58877;51.992;4.504;2023-04-28T02:42:29;10.87;60.66
71177;DHT22;58877;51.992;4.504;2023-04-28T02:44:54;10.81;60.82
71177;DHT22;58877;51.992;4.504;2023-04-28T02:47:20;10.78;60.95
71177;DHT22;58877;51.992;4.504;2023-04-28T02:49:46;10.85;60.61
71177;DHT22;58877;51.992;4.504;2023-04-28T02:52:12;10.84;61.18
71177;DHT22;58877;51.992;4.504;2023-04-28T02:54:38;10.90;61.34
71177;DHT22;58877;51.992;4.504;2023-04-28T02:57:03;10.90;61.11
71177;DHT22;58877;51.992;4.504;2023-04-28T02:59:30;10.90;61.08
71177;DHT22;58877;51.992;4.504;2023-04-28T03:01:56;10.91;60.82
71177;DHT22;58877;51.992;4.504;2023-04-28T03:04:21;10.85;61.48
71177;DHT22;58877;51.992;4.504;2023-04-28T03:06:47;10.88;60.66
71177;DHT22;58877;51.992;4.504;2023-04-28T03:09:13;10.91;60.58
71177;DHT22;58877;51.992;4.504;2023-04-28T03:11:41;10.84;61.02
71177;DHT22;58877;51.992;4.504;2023-04-28T03:14:06;10.82;60.87
71177;DHT22;58877;51.992;4.504;2023-04-28T03:16:32;10.82;61.08
71177;DHT22;58877;51.992;4.504;2023-04-28T03:18:58;10.88;61.32
71177;DHT22;58877;51.992;4.504;2023-04-28T03:21:23;10.91;61.48
71177;DHT22;58877;51.992;4.504;2023-04-28T03:23:52;10.91;61.03
71177;DHT22;58877;51.992;4.504;2023-04-28T03:26:18;10.91;60.99
71177;DHT22;58877;51.992;4.504;2023-04-28T03:28:44;10.90;61.51
71177;DHT22;58877;51.992;4.504;2023-04-28T03:31:10;10.88;61.36
71177;DHT22;58877;51.992;4.504;2023-04-28T03:33:36;10.81;61.76
71177;DHT22;58877;51.992;4.504;2023-04-28T03:36:02;10.75;61.49
71177;DHT22;58877;51.992;4.504;2023-04-28T03:38:27;10.82;62.02
71177;DHT22;58877;51.992;4.504;2023-04-28T03:40:53;10.81;62.16
71177;DHT22;58877;51.992;4.504;2023-04-28T03:43:19;10.88;61.90
71177;DHT22;58877;51.992;4.504;2023-04-28T03:45:44;10.82;62.03
71177;DHT22;58877;51.992;4.504;2023-04-28T03:48:11;10.88;62.44
71177;DHT22;58877;51.992;4.504;2023-04-28T03:50:37;10.81;62.23
71177;DHT22;58877;51.992;4.504;2023-04-28T03:53:05;10.77;62.08
71177;DHT22;58877;51.992;4.504;2023-04-28T03:55:31;10.84;62.30
71177;DHT22;58877;51.992;4.504;2023-04-28T03:57:58;10.81;62.68
71177;DHT22;58877;51.992;4.504;2023-04-28T04:00:23;10.72;62.66
71177;DHT22;58877;51.992;4.504;2023-04-28T04:02:49;10.71;62.76
71177;DHT22;58877;51.992;4.504;2023-04-28T04:05:15;10.68;63.00
71177;DHT22;58877;51.992;4.504;2023-04-28T04:07:41;10.59;63.32
71177;DHT22;58877;51.992;4.504;2023-04-28T04:10:07;10.53;63.60
71177;DHT22;58877;51.992;4.504;2023-04-28T04:12:33;10.56;63.55
71177;DHT22;58877;51.992;4.504;2023-04-28T04:14:58;10.54;63.84
71177;DHT22;58877;51.992;4.504;2023-04-28T04:17:24;10.59;63.76
71177;DHT22;58877;51.992;4.504;2023-04-28T04:19:49;10.61;63.60
71177;DHT22;58877;51.992;4.504;2023-04-28T04:22:15;10.64;63.71
71177;DHT22;58877;51.992;4.504;2023-04-28T04:24:41;10.63;63.82
71177;DHT22;58877;51.992;4.504;2023-04-28T04:27:07;10.65;63.86
71177;DHT22;58877;51.992;4.504;2023-04-28T04:29:32;10.70;63.58
71177;DHT22;58877;51.992;4.504;2023-04-28T04:31:58;10.72;63.65
71177;DHT22;58877;51.992;4.504;2023-04-28T04:34:24;10.75;63.69
71177;DHT22;58877;51.992;4.504;2023-04-28T04:36:49;10.80;63.34
71177;DHT22;58877;51.992;4.504;2023-04-28T04:39:15;10.84;63.81
71177;DHT22;58877;51.992;4.504;2023-04-28T04:41:41;10.87;63.71
71177;DHT22;58877;51.992;4.504;2023-04-28T04:44:06;10.87;63.65
71177;DHT22;58877;51.992;4.504;2023-04-28T04:46:33;10.94;63.74
71177;DHT22;58877;51.992;4.504;2023-04-28T04:48:58;10.95;64.17
71177;DHT22;58877;51.992;4.504;2023-04-28T04:51:24;10.92;64.77
71177;DHT22;58877;51.992;4.504;2023-04-28T04:53:50;11.00;65.26
71177;DHT22;58877;51.992;4.504;2023-04-28T04:56:16;10.95;66.49
71177;DHT22;58877;51.992;4.504;2023-04-28T04:58:42;10.90;67.46
71177;DHT22;58877;51.992;4.504;2023-04-28T05:01:09;10.85;68.17
71177;DHT22;58877;51.992;4.504;2023-04-28T05:03:34;10.80;69.07
71177;DHT22;58877;51.992;4.504;2023-04-28T05:06:03;10.74;69.71
71177;DHT22;58877;51.992;4.504;2023-04-28T05:08:29;10.80;70.69
71177;DHT22;58877;51.992;4.504;2023-04-28T05:10:55;10.82;71.17
71177;DHT22;58877;51.992;4.504;2023-04-28T05:13:22;10.82;71.61
71177;DHT22;58877;51.992;4.504;2023-04-28T05:15:48;10.81;71.45
71177;DHT22;58877;51.992;4.504;2023-04-28T05:18:14;10.68;72.03
71177;DHT22;58877;51.992;4.504;2023-04-28T05:20:40;10.61;72.92
71177;DHT22;58877;51.992;4.504;2023-04-28T05:23:06;10.53;73.20
71177;DHT22;58877;51.992;4.504;2023-04-28T05:25:32;10.50;73.68
71177;DHT22;58877;51.992;4.504;2023-04-28T05:27:58;10.46;74.66
71177;DHT22;58877;51.992;4.504;2023-04-28T05:30:29;10.43;75.38
71177;DHT22;58877;51.992;4.504;2023-04-28T05:32:58;10.37;75.92
71177;DHT22;58877;51.992;4.504;2023-04-28T05:35:27;10.27;76.17
71177;DHT22;58877;51.992;4.504;2023-04-28T05:37:55;10.09;76.78
71177;DHT22;58877;51.992;4.504;2023-04-28T05:40:21;9.99;77.57
71177;DHT22;58877;51.992;4.504;2023-04-28T05:43:01;9.90;77.95
71177;DHT22;58877;51.992;4.504;2023-04-28T05:45:55;9.92;78.52
71177;DHT22;58877;51.992;4.504;2023-04-28T05:48:21;10.00;78.80
71177;DHT22;58877;51.992;4.504;2023-04-28T05:50:46;10.00;78.92
71177;DHT22;58877;51.992;4.504;2023-04-28T05:53:13;10.03;79.17
71177;DHT22;58877;51.992;4.504;2023-04-28T05:55:45;10.09;79.22
71177;DHT22;58877;51.992;4.504;2023-04-28T05:58:16;10.16;79.55
71177;DHT22;58877;51.992;4.504;2023-04-28T06:00:42;10.17;79.21
71177;DHT22;58877;51.992;4.504;2023-04-28T06:03:14;10.13;79.04
71177;DHT22;58877;51.992;4.504;2023-04-28T06:05:44;10.16;79.36
71177;DHT22;58877;51.992;4.504;2023-04-28T06:08:10;10.16;78.99
71177;DHT22;58877;51.992;4.504;2023-04-28T06:10:36;10.16;79.25
71177;DHT22;58877;51.992;4.504;2023-04-28T06:13:28;10.27;79.29
71177;DHT22;58877;51.992;4.504;2023-04-28T06:15:55;10.34;78.98
71177;DHT22;58877;51.992;4.504;2023-04-28T06:18:40;10.32;78.85
71177;DHT22;58877;51.992;4.504;2023-04-28T06:21:06;10.33;78.67
71177;DHT22;58877;51.992;4.504;2023-04-28T06:23:32;10.33;78.85
71177;DHT22;58877;51.992;4.504;2023-04-28T06:26:08;10.39;78.72
71177;DHT22;58877;51.992;4.504;2023-04-28T06:28:44;10.49;79.01
71177;DHT22;58877;51.992;4.504;2023-04-28T06:31:10;10.64;79.04
71177;DHT22;58877;51.992;4.504;2023-04-28T06:33:36;10.77;78.75
71177;DHT22;58877;51.992;4.504;2023-04-28T06:36:03;10.91;78.77
71177;DHT22;58877;51.992;4.504;2023-04-28T06:38:30;10.97;78.63
71177;DHT22;58877;51.992;4.504;2023-04-28T06:40:57;11.00;78.97
71177;DHT22;58877;51.992;4.504;2023-04-28T06:43:24;10.91;79.15
71177;DHT22;58877;51.992;4.504;2023-04-28T06:45:53;10.82;79.84
71177;DHT22;58877;51.992;4.504;2023-04-28T06:48:22;10.81;80.64
71177;DHT22;58877;51.992;4.504;2023-04-28T06:50:53;10.78;80.97
71177;DHT22;58877;51.992;4.504;2023-04-28T06:53:21;10.74;81.58
71177;DHT22;58877;51.992;4.504;2023-04-28T06:55:47;10.70;82.06
71177;DHT22;58877;51.992;4.504;2023-04-28T06:58:20;10.75;82.18
71177;DHT22;58877;51.992;4.504;2023-04-28T07:00:51;10.78;82.70
71177;DHT22;58877;51.992;4.504;2023-04-28T07:03:18;10.82;82.83
71177;DHT22;58877;51.992;4.504;2023-04-28T07:05:47;10.95;83.07
71177;DHT22;58877;51.992;4.504;2023-04-28T07:08:13;11.01;83.13
71177;DHT22;58877;51.992;4.504;2023-04-28T07:10:49;11.10;82.97
71177;DHT22;58877;51.992;4.504;2023-04-28T07:13:15;11.12;82.69
71177;DHT22;58877;51.992;4.504;2023-04-28T07:15:41;11.10;83.18
71177;DHT22;58877;51.992;4.504;2023-04-28T07:18:07;11.14;82.99
71177;DHT22;58877;51.992;4.504;2023-04-28T07:20:32;11.18;83.29
71177;DHT22;58877;51.992;4.504;2023-04-28T07:22:58;11.24;83.31
71177;DHT22;58877;51.992;4.504;2023-04-28T07:25:25;11.29;83.34
71177;DHT22;58877;51.992;4.504;2023-04-28T07:27:51;11.35;83.61
71177;DHT22;58877;51.992;4.504;2023-04-28T07:30:18;11.46;83.66
71177;DHT22;58877;51.992;4.504;2023-04-28T07:32:44;11.56;83.53
71177;DHT22;58877;51.992;4.504;2023-04-28T07:35:09;11.72;83.53
71177;DHT22;58877;51.992;4.504;2023-04-28T07:37:36;12.01;83.47
71177;DHT22;58877;51.992;4.504;2023-04-28T07:40:02;12.14;83.10
71177;DHT22;58877;51.992;4.504;2023-04-28T07:42:28;12.29;83.34
71177;DHT22;58877;51.992;4.504;2023-04-28T07:44:53;12.30;83.25
71177;DHT22;58877;51.992;4.504;2023-04-28T07:47:20;12.34;83.16
71177;DHT22;58877;51.992;4.504;2023-04-28T07:49:45;12.37;83.25
71177;DHT22;58877;51.992;4.504;2023-04-28T07:52:11;12.45;83.31
71177;DHT22;58877;51.992;4.504;2023-04-28T07:54:37;12.41;83.11
71177;DHT22;58877;51.992;4.504;2023-04-28T07:57:04;12.41;83.38
71177;DHT22;58877;51.992;4.504;2023-04-28T07:59:32;12.44;83.45
71177;DHT22;58877;51.992;4.504;2023-04-28T08:01:58;12.45;83.73
71177;DHT22;58877;51.992;4.504;2023-04-28T08:04:24;12.50;83.75
71177;DHT22;58877;51.992;4.504;2023-04-28T08:06:50;12.44;83.99
71177;DHT22;58877;51.992;4.504;2023-04-28T08:09:15;12.44;84.08
71177;DHT22;58877;51.992;4.504;2023-04-28T08:11:41;12.53;84.30
71177;DHT22;58877;51.992;4.504;2023-04-28T08:14:07;12.60;84.06
71177;DHT22;58877;51.992;4.504;2023-04-28T08:16:33;12.63;84.14
71177;DHT22;58877;51.992;4.504;2023-04-28T08:19:03;12.74;84.40
71177;DHT22;58877;51.992;4.504;2023-04-28T08:21:29;12.84;84.49
71177;DHT22;58877;51.992;4.504;2023-04-28T08:23:55;12.91;84.39
71177;DHT22;58877;51.992;4.504;2023-04-28T08:26:20;12.96;84.37
71177;DHT22;58877;51.992;4.504;2023-04-28T08:28:46;13.04;84.34
71177;DHT22;58877;51.992;4.504;2023-04-28T08:31:15;13.11;84.17
71177;DHT22;58877;51.992;4.504;2023-04-28T08:33:40;13.30;84.22
71177;DHT22;58877;51.992;4.504;2023-04-28T08:36:09;13.39;83.92
71177;DHT22;58877;51.992;4.504;2023-04-28T08:38:40;13.36;84.06
71177;DHT22;58877;51.992;4.504;2023-04-28T08:41:06;13.45;84.33
71177;DHT22;58877;51.992;4.504;2023-04-28T08:43:35;13.55;84.12
71177;DHT22;58877;51.992;4.504;2023-04-28T08:46:07;13.59;84.34
71177;DHT22;58877;51.992;4.504;2023-04-28T08:48:41;13.63;84.12
71177;DHT22;58877;51.992;4.504;2023-04-28T08:51:14;13.79;83.98
71177;DHT22;58877;51.992;4.504;2023-04-28T08:53:44;13.89;83.89
71177;DHT22;58877;51.992;4.504;2023-04-28T08:56:15;14.06;83.49
71177;DHT22;58877;51.992;4.504;2023-04-28T08:58:43;14.16;83.07
71177;DHT22;58877;51.992;4.504;2023-04-28T09:01:09;13.99;82.92
71177;DHT22;58877;51.992;4.504;2023-04-28T09:03:35;14.13;83.10
71177;DHT22;58877;51.992;4.504;2023-04-28T09:06:01;14.30;82.37
71177;DHT22;58877;51.992;4.504;2023-04-28T09:08:27;14.40;82.30
71177;DHT22;58877;51.992;4.504;2023-04-28T09:11:07;14.58;82.24
71177;DHT22;58877;51.992;4.504;2023-04-28T09:13:33;14.64;81.75
71177;DHT22;58877;51.992;4.504;2023-04-28T09:16:00;14.74;81.84
71177;DHT22;58877;51.992;4.504;2023-04-28T09:18:27;14.81;81.62
71177;DHT22;58877;51.992;4.504;2023-04-28T09:21:02;14.72;81.23
71177;DHT22;58877;51.992;4.504;2023-04-28T09:23:29;14.63;81.61
71177;DHT22;58877;51.992;4.504;2023-04-28T09:26:04;14.48;81.74
71177;DHT22;58877;51.992;4.504;2023-04-28T09:28:32;14.35;82.66
71177;DHT22;58877;51.992;4.504;2023-04-28T09:30:59;14.54;82.86
71177;DHT22;58877;51.992;4.504;2023-04-28T09:33:25;14.68;82.71
71177;DHT22;58877;51.992;4.504;2023-04-28T09:35:51;14.74;82.48
71177;DHT22;58877;51.992;4.504;2023-04-28T09:38:22;14.85;82.46
71177;DHT22;58877;51.992;4.504;2023-04-28T09:41:08;14.78;82.43
71177;DHT22;58877;51.992;4.504;2023-04-28T09:43:34;14.74;82.87
71177;DHT22;58877;51.992;4.504;2023-04-28T09:46:06;14.44;83.55
71177;DHT22;58877;51.992;4.504;2023-04-28T09:48:34;14.13;84.30
71177;DHT22;58877;51.992;4.504;2023-04-28T09:51:02;14.06;84.97
71177;DHT22;58877;51.992;4.504;2023-04-28T09:53:29;13.90;86.15
71177;DHT22;58877;51.992;4.504;2023-04-28T09:56:00;13.93;86.55
71177;DHT22;58877;51.992;4.504;2023-04-28T09:58:28;13.94;86.81
71177;DHT22;58877;51.992;4.504;2023-04-28T10:00:58;13.94;86.62
71177;DHT22;58877;51.992;4.504;2023-04-28T10:03:27;14.10;87.07
71177;DHT22;58877;51.992;4.504;2023-04-28T10:05:54;14.17;86.77
71177;DHT22;58877;51.992;4.504;2023-04-28T10:08:21;14.20;87.03
71177;DHT22;58877;51.992;4.504;2023-04-28T10:10:49;14.34;86.83
71177;DHT22;58877;51.992;4.504;2023-04-28T10:13:18;14.33;86.44
71177;DHT22;58877;51.992;4.504;2023-04-28T10:15:45;14.16;86.47
71177;DHT22;58877;51.992;4.504;2023-04-28T10:18:12;14.14;86.86
71177;DHT22;58877;51.992;4.504;2023-04-28T10:20:46;14.03;87.33
71177;DHT22;58877;51.992;4.504;2023-04-28T10:23:31;14.01;87.27
71177;DHT22;58877;51.992;4.504;2023-04-28T10:26:04;14.01;87.36
71177;DHT22;58877;51.992;4.504;2023-04-28T10:28:35;14.16;87.45
71177;DHT22;58877;51.992;4.504;2023-04-28T10:31:18;13.99;87.28
71177;DHT22;58877;51.992;4.504;2023-04-28T10:33:46;14.04;87.76
71177;DHT22;58877;51.992;4.504;2023-04-28T10:36:49;14.11;87.13
71177;DHT22;58877;51.992;4.504;2023-04-28T10:39:17;14.09;86.70
71177;DHT22;58877;51.992;4.504;2023-04-28T10:41:46;13.97;87.37
71177;DHT22;58877;51.992;4.504;2023-04-28T10:55:28;13.86;87.24
71177;DHT22;58877;51.992;4.504;2023-04-28T11:00:43;13.55;88.58
71177;DHT22;58877;51.992;4.504;2023-04-28T11:06:18;13.46;89.48
71177;DHT22;58877;51.992;4.504;2023-04-28T11:08:45;13.63;88.86
71177;DHT22;58877;51.992;4.504;2023-04-28T11:11:19;13.69;89.07
71177;DHT22;58877;51.992;4.504;2023-04-28T11:13:46;13.65;88.78
71177;DHT22;58877;51.992;4.504;2023-04-28T11:16:18;13.74;88.18
71177;DHT22;58877;51.992;4.504;2023-04-28T11:18:54;13.62;88.95
71177;DHT22;58877;51.992;4.504;2023-04-28T11:21:23;13.89;89.12
71177;DHT22;58877;51.992;4.504;2023-04-28T11:23:49;13.99;88.57
71177;DHT22;58877;51.992;4.504;2023-04-28T11:26:17;13.80;88.56
71177;DHT22;58877;51.992;4.504;2023-04-28T11:28:51;13.79;89.18
71177;DHT22;58877;51.992;4.504;2023-04-28T11:31:18;13.89;88.39
71177;DHT22;58877;51.992;4.504;2023-04-28T11:36:35;13.76;88.83
71177;DHT22;58877;51.992;4.504;2023-04-28T11:39:10;13.86;89.11
71177;DHT22;58877;51.992;4.504;2023-04-28T11:41:38;13.96;89.13
71177;DHT22;58877;51.992;4.504;2023-04-28T11:44:15;14.13;88.21
71177;DHT22;58877;51.992;4.504;2023-04-28T11:49:11;13.70;89.28
71177;DHT22;58877;51.992;4.504;2023-04-28T11:51:37;13.65;89.75
71177;DHT22;58877;51.992;4.504;2023-04-28T11:54:05;13.67;89.93
71177;DHT22;58877;51.992;4.504;2023-04-28T11:56:41;13.80;89.56
71177;DHT22;58877;51.992;4.504;2023-04-28T11:59:12;13.79;89.98
71177;DHT22;58877;51.992;4.504;2023-04-28T12:01:53;13.76;89.66
71177;DHT22;58877;51.992;4.504;2023-04-28T12:04:32;13.66;89.75
71177;DHT22;58877;51.992;4.504;2023-04-28T12:07:18;13.80;90.02
71177;DHT22;58877;51.992;4.504;2023-04-28T12:09:46;13.87;89.83
71177;DHT22;58877;51.992;4.504;2023-04-28T12:12:15;13.79;89.92
71177;DHT22;58877;51.992;4.504;2023-04-28T12:17:33;13.58;90.56
71177;DHT22;58877;51.992;4.504;2023-04-28T12:20:01;13.62;90.39
71177;DHT22;58877;51.992;4.504;2023-04-28T12:22:27;13.63;90.27
71177;DHT22;58877;51.992;4.504;2023-04-28T12:25:08;13.63;90.66
71177;DHT22;58877;51.992;4.504;2023-04-28T12:27:36;13.38;90.56
71177;DHT22;58877;51.992;4.504;2023-04-28T12:32:47;13.59;91.11
71177;DHT22;58877;51.992;4.504;2023-04-28T12:35:13;13.62;90.89
71177;DHT22;58877;51.992;4.504;2023-04-28T12:37:43;13.58;90.80
71177;DHT22;58877;51.992;4.504;2023-04-28T12:40:09;13.42;90.49
71177;DHT22;58877;51.992;4.504;2023-04-28T12:42:35;13.42;90.71
71177;DHT22;58877;51.992;4.504;2023-04-28T12:45:01;13.42;90.66
71177;DHT22;58877;51.992;4.504;2023-04-28T12:47:27;13.52;90.79
71177;DHT22;58877;51.992;4.504;2023-04-28T12:49:53;13.49;90.95
71177;DHT22;58877;51.992;4.504;2023-04-28T12:52:20;13.34;90.61
71177;DHT22;58877;51.992;4.504;2023-04-28T12:54:47;13.29;91.03
71177;DHT22;58877;51.992;4.504;2023-04-28T12:57:18;13.20;91.17
71177;DHT22;58877;51.992;4.504;2023-04-28T12:59:47;13.20;91.14
71177;DHT22;58877;51.992;4.504;2023-04-28T13:02:13;13.18;91.02
71177;DHT22;58877;51.992;4.504;2023-04-28T13:04:40;13.35;91.35
71177;DHT22;58877;51.992;4.504;2023-04-28T13:07:11;13.45;91.55
71177;DHT22;58877;51.992;4.504;2023-04-28T13:09:37;13.63;91.43
71177;DHT22;58877;51.992;4.504;2023-04-28T13:12:03;13.73;90.86
71177;DHT22;58877;51.992;4.504;2023-04-28T13:14:29;13.56;90.68
71177;DHT22;58877;51.992;4.504;2023-04-28T13:17:02;13.48;91.45
71177;DHT22;58877;51.992;4.504;2023-04-28T13:19:28;13.65;91.43
71177;DHT22;58877;51.992;4.504;2023-04-28T13:21:56;13.53;90.90
71177;DHT22;58877;51.992;4.504;2023-04-28T13:24:24;13.49;91.37
71177;DHT22;58877;51.992;4.504;2023-04-28T13:26:51;13.43;91.21
71177;DHT22;58877;51.992;4.504;2023-04-28T13:29:19;13.65;90.90
71177;DHT22;58877;51.992;4.504;2023-04-28T13:31:48;13.52;90.64
71177;DHT22;58877;51.992;4.504;2023-04-28T13:34:16;13.55;90.77
71177;DHT22;58877;51.992;4.504;2023-04-28T13:36:44;13.60;90.21
71177;DHT22;58877;51.992;4.504;2023-04-28T13:39:11;13.58;90.11
71177;DHT22;58877;51.992;4.504;2023-04-28T13:41:41;13.59;89.79
71177;DHT22;58877;51.992;4.504;2023-04-28T13:44:07;13.71;89.98
71177;DHT22;58877;51.992;4.504;2023-04-28T13:46:42;13.77;89.57
71177;DHT22;58877;51.992;4.504;2023-04-28T13:49:08;13.67;89.98
71177;DHT22;58877;51.992;4.504;2023-04-28T13:51:35;13.67;90.43
71177;DHT22;58877;51.992;4.504;2023-04-28T13:54:01;13.73;90.37
71177;DHT22;58877;51.992;4.504;2023-04-28T13:56:33;13.79;90.23
71177;DHT22;58877;51.992;4.504;2023-04-28T13:59:03;13.77;90.41
71177;DHT22;58877;51.992;4.504;2023-04-28T14:01:29;13.93;90.10
71177;DHT22;58877;51.992;4.504;2023-04-28T14:03:54;13.81;89.79
71177;DHT22;58877;51.992;4.504;2023-04-28T14:06:20;13.80;90.19
71177;DHT22;58877;51.992;4.504;2023-04-28T14:08:46;13.69;90.25
71177;DHT22;58877;51.992;4.504;2023-04-28T14:11:13;13.59;90.46
71177;DHT22;58877;51.992;4.504;2023-04-28T14:13:42;13.59;90.25
71177;DHT22;58877;51.992;4.504;2023-04-28T14:16:08;13.46;90.17
71177;DHT22;58877;51.992;4.504;2023-04-28T14:18:38;13.48;90.29
71177;DHT22;58877;51.992;4.504;2023-04-28T14:21:03;13.60;89.95
71177;DHT22;58877;51.992;4.504;2023-04-28T14:26:05;13.70;89.72
71177;DHT22;58877;51.992;4.504;2023-04-28T14:28:34;13.67;89.40
71177;DHT22;58877;51.992;4.504;2023-04-28T14:31:02;13.62;89.20
71177;DHT22;58877;51.992;4.504;2023-04-28T14:33:30;13.63;89.06
71177;DHT22;58877;51.992;4.504;2023-04-28T14:35:56;13.70;89.00
71177;DHT22;58877;51.992;4.504;2023-04-28T14:38:22;13.70;89.02
71177;DHT22;58877;51.992;4.504;2023-04-28T14:40:57;13.67;89.07
71177;DHT22;58877;51.992;4.504;2023-04-28T14:43:22;13.66;89.09
71177;DHT22;58877;51.992;4.504;2023-04-28T14:45:48;13.56;89.13
71177;DHT22;58877;51.992;4.504;2023-04-28T14:48:14;13.50;89.71
71177;DHT22;58877;51.992;4.504;2023-04-28T14:50:41;13.53;89.81
71177;DHT22;58877;51.992;4.504;2023-04-28T14:53:07;13.46;89.67
71177;DHT22;58877;51.992;4.504;2023-04-28T14:55:33;13.45;89.97
71177;DHT22;58877;51.992;4.504;2023-04-28T14:57:59;13.52;89.87
71177;DHT22;58877;51.992;4.504;2023-04-28T15:00:25;13.60;89.79
71177;DHT22;58877;51.992;4.504;2023-04-28T15:02:51;13.56;89.62
71177;DHT22;58877;51.992;4.504;2023-04-28T15:05:16;13.60;89.74
71177;DHT22;58877;51.992;4.504;2023-04-28T15:07:42;13.73;89.60
71177;DHT22;58877;51.992;4.504;2023-04-28T15:10:08;13.63;89.84
71177;DHT22;58877;51.992;4.504;2023-04-28T15:12:34;13.67;90.35
71177;DHT22;58877;51.992;4.504;2023-04-28T15:14:59;13.60;90.03
71177;DHT22;58877;51.992;4.504;2023-04-28T15:17:25;13.59;90.58
71177;DHT22;58877;51.992;4.504;2023-04-28T15:19:51;13.50;90.49
71177;DHT22;58877;51.992;4.504;2023-04-28T15:22:16;13.39;90.64
71177;DHT22;58877;51.992;4.504;2023-04-28T15:24:42;13.32;91.14
71177;DHT22;58877;51.992;4.504;2023-04-28T15:27:08;13.32;91.22
71177;DHT22;58877;51.992;4.504;2023-04-28T15:29:33;13.38;91.38
71177;DHT22;58877;51.992;4.504;2023-04-28T15:31:59;13.46;91.19
71177;DHT22;58877;51.992;4.504;2023-04-28T15:34:25;13.42;91.35
71177;DHT22;58877;51.992;4.504;2023-04-28T15:36:51;13.34;91.33
71177;DHT22;58877;51.992;4.504;2023-04-28T15:39:18;13.39;91.65
71177;DHT22;58877;51.992;4.504;2023-04-28T15:41:47;13.46;91.21
71177;DHT22;58877;51.992;4.504;2023-04-28T15:44:13;13.42;91.58
71177;DHT22;58877;51.992;4.504;2023-04-28T15:46:38;13.45;91.55
71177;DHT22;58877;51.992;4.504;2023-04-28T15:49:04;13.35;91.82
71177;DHT22;58877;51.992;4.504;2023-04-28T15:51:30;13.25;91.85
71177;DHT22;58877;51.992;4.504;2023-04-28T15:54:04;13.20;92.11
71177;DHT22;58877;51.992;4.504;2023-04-28T15:56:36;13.18;92.32
71177;DHT22;58877;51.992;4.504;2023-04-28T15:59:18;13.15;92.04
71177;DHT22;58877;51.992;4.504;2023-04-28T16:02:08;13.05;92.65
71177;DHT22;58877;51.992;4.504;2023-04-28T16:04:34;13.08;92.62